Time;durP1;ratioP1;P1;durP2;ratioP2;P2;SDS_P1;SDS_P2;PMS_P1;PMS_P2;Temp;Humidity;BMP_temperature;BMP_pressure;BME280_temperature;BME280_humidity;BME280_pressure;Samples;Min_cycle;Max_cycle;Signal;HPM_P1;HPM_P2
2023/04/11 00:00:34;;;;;;;69.45;15.13;;;4.90;99.90;;;;;;5028939;28;20103;-76
2023/04/11 00:03:02;;;;;;;67.03;15.15;;;4.90;99.90;;;;;;5030747;28;20064;-77
2023/04/11 00:05:31;;;;;;;82.97;17.67;;;4.90;99.90;;;;;;5029950;28;20049;-76
2023/04/11 00:07:59;;;;;;;80.07;15.75;;;4.80;99.90;;;;;;5031370;28;20049;-75
2023/04/11 00:10:26;;;;;;;71.63;15.80;;;4.80;99.90;;;;;;5028556;28;20056;-76
2023/04/11 00:12:55;;;;;;;69.43;16.42;;;4.80;99.90;;;;;;5032223;28;20049;-76
2023/04/11 00:15:25;;;;;;;60.55;14.63;;;4.80;99.90;;;;;;5033952;28;20048;-76
2023/04/11 00:17:56;;;;;;;67.68;14.88;;;4.80;99.90;;;;;;5043693;28;20044;-76
2023/04/11 00:20:24;;;;;;;66.25;15.02;;;4.80;99.90;;;;;;5048346;28;20528;-76
2023/04/11 00:22:52;;;;;;;67.50;15.48;;;4.80;99.90;;;;;;5032265;28;20077;-76
2023/04/11 00:25:20;;;;;;;69.43;15.20;;;4.70;99.90;;;;;;5030931;28;20053;-76
2023/04/11 00:27:47;;;;;;;63.78;14.77;;;4.70;99.90;;;;;;5029200;28;20128;-77
2023/04/11 00:30:15;;;;;;;57.60;14.10;;;4.70;99.90;;;;;;5030445;28;20045;-75
2023/04/11 00:32:45;;;;;;;63.58;15.75;;;4.70;99.90;;;;;;5013231;28;20042;-76
2023/04/11 00:35:14;;;;;;;52.10;14.00;;;4.60;99.90;;;;;;5029503;28;20057;-76
2023/04/11 00:37:43;;;;;;;69.32;14.57;;;4.60;99.90;;;;;;5028993;28;20461;-76
2023/04/11 00:40:12;;;;;;;58.40;15.27;;;4.60;99.90;;;;;;5023859;28;20052;-75
2023/04/11 00:42:40;;;;;;;54.03;13.88;;;4.60;99.90;;;;;;5025359;28;20490;-74
2023/04/11 00:45:09;;;;;;;65.38;15.00;;;4.50;99.90;;;;;;5029558;28;20075;-74
2023/04/11 00:47:36;;;;;;;63.35;15.45;;;4.50;99.90;;;;;;5030392;28;20041;-74
2023/04/11 00:50:05;;;;;;;53.70;13.77;;;4.50;99.90;;;;;;5029685;28;20144;-75
2023/04/11 00:52:34;;;;;;;74.15;14.40;;;4.50;99.90;;;;;;5019682;28;20101;-76
2023/04/11 00:55:03;;;;;;;56.13;14.70;;;4.40;99.90;;;;;;5045825;28;20505;-76
2023/04/11 00:57:31;;;;;;;58.80;15.30;;;4.40;99.90;;;;;;5035052;28;20134;-76
2023/04/11 01:00:00;;;;;;;59.92;14.65;;;4.40;99.90;;;;;;5028765;28;20053;-76
2023/04/11 01:02:28;;;;;;;69.40;14.77;;;4.30;99.90;;;;;;5037210;28;20521;-74
2023/04/11 01:04:56;;;;;;;51.47;14.15;;;4.30;99.90;;;;;;5044735;28;20056;-75
2023/04/11 01:07:24;;;;;;;58.85;15.00;;;4.30;99.90;;;;;;5026600;28;20052;-74
2023/04/11 01:09:54;;;;;;;69.80;13.15;;;4.30;99.90;;;;;;5028786;28;20103;-74
2023/04/11 01:12:22;;;;;;;48.95;12.63;;;4.20;99.90;;;;;;5019970;28;20083;-74
2023/04/11 01:14:50;;;;;;;64.20;15.55;;;4.20;99.90;;;;;;5038531;28;20530;-74
2023/04/11 01:17:20;;;;;;;50.22;12.68;;;4.20;99.90;;;;;;5038618;28;20045;-73
2023/04/11 01:19:48;;;;;;;53.65;13.77;;;4.20;99.90;;;;;;5040488;28;20374;-73
2023/04/11 01:22:17;;;;;;;57.85;13.82;;;4.10;99.90;;;;;;5025937;28;20045;-75
2023/04/11 01:24:46;;;;;;;81.20;15.30;;;4.10;99.90;;;;;;5050747;28;20041;-74
2023/04/11 01:27:14;;;;;;;72.72;14.77;;;4.00;99.90;;;;;;5051985;28;20041;-73
2023/04/11 01:29:41;;;;;;;74.97;14.05;;;3.90;99.90;;;;;;5051194;28;20071;-74
2023/04/11 01:32:11;;;;;;;83.43;15.63;;;3.90;99.90;;;;;;5037710;28;20103;-75
2023/04/11 01:34:41;;;;;;;72.40;14.40;;;3.80;99.90;;;;;;5036091;28;20053;-75
2023/04/11 01:37:08;;;;;;;70.43;15.68;;;3.90;99.90;;;;;;5037956;28;20812;-74
2023/04/11 01:39:36;;;;;;;75.90;15.68;;;3.90;99.90;;;;;;5032219;28;20076;-74
2023/04/11 01:42:07;;;;;;;77.28;13.90;;;3.80;99.90;;;;;;5034071;28;20049;-74
2023/04/11 01:44:36;;;;;;;73.47;15.20;;;3.80;99.90;;;;;;5031833;28;20539;-73
2023/04/11 01:47:04;;;;;;;56.67;12.90;;;3.80;99.90;;;;;;5027685;28;20118;-76
2023/04/11 01:49:32;;;;;;;82.15;14.25;;;3.70;99.90;;;;;;5024989;28;20061;-76
2023/04/11 01:51:59;;;;;;;59.60;14.70;;;3.60;99.90;;;;;;5016114;28;20457;-77
2023/04/11 01:54:27;;;;;;;78.60;14.65;;;3.60;99.90;;;;;;5021990;28;20103;-75
2023/04/11 01:56:55;;;;;;;64.80;14.63;;;3.50;99.90;;;;;;5049623;28;20049;-76
2023/04/11 01:59:24;;;;;;;69.85;14.05;;;3.50;99.90;;;;;;5042616;28;20050;-74
2023/04/11 02:01:51;;;;;;;65.97;16.45;;;3.50;99.90;;;;;;5028082;28;20441;-76
2023/04/11 02:04:19;;;;;;;59.88;16.45;;;3.50;99.90;;;;;;5015829;28;20060;-77
2023/04/11 02:06:46;;;;;;;69.22;14.98;;;3.50;99.90;;;;;;5050719;28;20051;-77
2023/04/11 02:09:14;;;;;;;61.38;16.17;;;3.50;99.90;;;;;;5050603;28;20057;-77
2023/04/11 02:11:41;;;;;;;77.93;17.40;;;3.40;99.90;;;;;;5040576;28;20076;-76
2023/04/11 02:14:13;;;;;;;72.55;14.45;;;3.40;99.90;;;;;;5048459;28;20552;-75
2023/04/11 02:17:03;;;;;;;81.00;14.90;;;3.30;99.90;;;;;;5018409;28;20041;-76
2023/04/11 02:19:31;;;;;;;78.68;16.65;;;3.30;99.90;;;;;;5020320;28;20064;-77
2023/04/11 02:21:58;;;;;;;74.45;17.05;;;3.30;99.90;;;;;;5043826;28;20044;-74
2023/04/11 02:24:27;;;;;;;71.57;15.18;;;3.30;99.90;;;;;;5049874;28;20110;-74
2023/04/11 02:26:56;;;;;;;67.13;14.98;;;3.30;99.90;;;;;;5035022;28;20135;-74
2023/04/11 02:29:25;;;;;;;68.47;14.55;;;3.30;99.90;;;;;;5047203;28;20095;-74
2023/04/11 02:31:53;;;;;;;59.08;15.35;;;3.30;99.90;;;;;;5033695;28;20235;-74
2023/04/11 02:34:21;;;;;;;67.72;15.95;;;3.30;99.90;;;;;;5031666;28;20516;-74
2023/04/11 02:36:49;;;;;;;94.38;17.98;;;3.30;99.90;;;;;;5029960;28;20523;-73
2023/04/11 02:39:16;;;;;;;87.05;16.30;;;3.30;99.90;;;;;;5019333;28;20048;-74
2023/04/11 02:41:44;;;;;;;73.55;15.68;;;3.20;99.90;;;;;;5042196;28;20425;-74
2023/04/11 02:44:12;;;;;;;78.10;16.48;;;3.20;99.90;;;;;;5031363;28;20045;-74
2023/04/11 02:46:41;;;;;;;62.92;15.55;;;3.20;99.90;;;;;;5006593;28;20073;-74
2023/04/11 02:49:09;;;;;;;77.20;16.85;;;3.10;99.90;;;;;;5020492;28;20151;-74
2023/04/11 02:51:38;;;;;;;69.30;19.38;;;3.20;99.90;;;;;;5040219;28;20391;-74
2023/04/11 02:54:06;;;;;;;81.40;21.73;;;3.10;99.90;;;;;;5018977;28;20148;-74
2023/04/11 02:56:37;;;;;;;90.72;19.90;;;3.10;99.90;;;;;;5030650;28;20096;-74
2023/04/11 02:59:06;;;;;;;72.90;17.33;;;3.10;99.90;;;;;;5030970;28;20585;-73
2023/04/11 03:01:36;;;;;;;64.75;17.30;;;3.10;99.90;;;;;;5014572;28;20053;-73
2023/04/11 03:04:04;;;;;;;72.22;20.65;;;3.10;99.90;;;;;;5031243;28;20559;-76
2023/04/11 03:06:44;;;;;;;87.82;22.33;;;3.00;99.90;;;;;;5033344;28;20139;-75
2023/04/11 03:09:13;;;;;;;78.38;19.25;;;3.00;99.90;;;;;;5049539;28;20052;-77
2023/04/11 03:11:42;;;;;;;79.57;20.67;;;3.00;99.90;;;;;;5030672;28;20096;-77
2023/04/11 03:14:09;;;;;;;75.03;19.60;;;3.00;99.90;;;;;;5030993;28;20474;-74
2023/04/11 03:16:37;;;;;;;46.65;17.05;;;2.90;99.90;;;;;;5013358;28;20050;-75
2023/04/11 03:19:05;;;;;;;72.95;18.63;;;2.90;99.90;;;;;;5031666;28;20047;-73
2023/04/11 03:21:32;;;;;;;59.05;17.42;;;2.90;99.90;;;;;;5043096;28;20061;-74
2023/04/11 03:24:01;;;;;;;88.45;20.20;;;2.90;99.90;;;;;;5049018;28;20080;-73
2023/04/11 03:26:29;;;;;;;78.55;19.77;;;3.00;99.90;;;;;;5035872;28;20395;-73
2023/04/11 03:29:01;;;;;;;82.72;22.92;;;3.00;99.90;;;;;;5030647;28;20514;-74
2023/04/11 03:31:34;;;;;;;69.20;18.85;;;3.00;99.90;;;;;;5030438;28;20514;-74
2023/04/11 03:34:06;;;;;;;80.60;19.25;;;3.00;99.90;;;;;;5029750;28;21347;-74
2023/04/11 03:36:34;;;;;;;97.88;22.73;;;3.00;99.90;;;;;;5031028;28;20049;-74
2023/04/11 03:39:06;;;;;;;78.80;21.65;;;3.00;99.90;;;;;;5041764;28;20104;-74
2023/04/11 03:41:34;;;;;;;71.22;19.27;;;3.00;99.90;;;;;;5042015;28;20621;-73
2023/04/11 03:44:03;;;;;;;75.60;19.92;;;3.00;99.90;;;;;;5042094;28;20057;-75
2023/04/11 03:46:31;;;;;;;91.20;21.38;;;3.00;99.90;;;;;;5028161;28;20069;-74
2023/04/11 03:48:58;;;;;;;92.45;22.85;;;3.10;99.90;;;;;;5030547;28;20042;-74
2023/04/11 03:51:26;;;;;;;85.13;21.00;;;3.10;99.90;;;;;;5013663;28;20247;-74
2023/04/11 03:54:07;;;;;;;76.07;19.55;;;3.10;99.90;;;;;;5039274;28;20055;-74
2023/04/11 03:56:41;;;;;;;79.38;21.70;;;3.20;99.90;;;;;;5031024;28;20041;-74
2023/04/11 03:59:14;;;;;;;75.95;18.85;;;3.30;99.90;;;;;;5043151;28;20137;-74
2023/04/11 04:01:53;;;;;;;81.90;19.13;;;3.30;99.90;;;;;;5028971;28;20057;-74
2023/04/11 04:04:20;;;;;;;67.25;19.15;;;3.40;99.90;;;;;;5029551;28;20095;-75
2023/04/11 04:06:55;;;;;;;74.88;18.83;;;3.50;99.90;;;;;;5013414;28;20490;-74
2023/04/11 04:09:31;;;;;;;71.63;19.63;;;3.50;99.90;;;;;;5011778;28;20056;-75
2023/04/11 04:12:00;;;;;;;75.25;19.80;;;3.50;99.90;;;;;;5022499;28;20058;-76
2023/04/11 04:14:39;;;;;;;58.13;17.83;;;3.60;99.90;;;;;;5051515;28;20594;-76
2023/04/11 04:17:08;;;;;;;82.20;20.02;;;3.70;99.90;;;;;;5026252;28;20049;-76
2023/04/11 04:19:35;;;;;;;64.25;19.30;;;3.80;99.90;;;;;;5023422;28;20100;-76
2023/04/11 04:22:03;;;;;;;70.68;20.35;;;3.80;99.90;;;;;;5028561;28;20045;-77
2023/04/11 04:24:38;;;;;;;63.80;17.60;;;3.90;99.90;;;;;;5026360;28;20119;-75
2023/04/11 04:27:20;;;;;;;73.95;18.50;;;4.00;99.90;;;;;;5023784;28;20106;-75
2023/04/11 04:29:51;;;;;;;74.07;20.23;;;4.10;99.90;;;;;;5034733;28;20073;-80
2023/04/11 04:32:27;;;;;;;79.68;19.88;;;4.10;99.90;;;;;;5013386;28;20151;-76
2023/04/11 04:35:00;;;;;;;68.18;19.80;;;4.20;99.90;;;;;;5029782;28;20492;-77
2023/04/11 04:38:45;;;;;;;72.68;19.67;;;4.30;99.90;;;;;;5031535;28;20620;-76
2023/04/11 04:41:20;;;;;;;97.03;21.67;;;4.40;99.90;;;;;;5023392;28;20061;-76
2023/04/11 04:43:57;;;;;;;86.20;22.20;;;4.50;99.90;;;;;;5025076;28;20106;-76
2023/04/11 04:46:38;;;;;;;90.93;21.58;;;4.60;99.90;;;;;;5021647;28;20041;-76
2023/04/11 04:49:12;;;;;;;78.50;21.80;;;4.60;99.90;;;;;;5027785;28;20107;-76
2023/04/11 04:51:48;;;;;;;87.78;21.55;;;4.70;99.90;;;;;;5019029;28;20100;-75
2023/04/11 04:54:18;;;;;;;77.80;22.10;;;4.80;99.90;;;;;;5015213;28;20053;-75
2023/04/11 04:56:48;;;;;;;76.55;21.63;;;4.80;99.90;;;;;;5009946;28;20418;-78
2023/04/11 04:59:17;;;;;;;89.85;25.65;;;4.90;99.90;;;;;;5020160;28;20053;-76
2023/04/11 05:01:50;;;;;;;83.03;19.40;;;5.00;99.90;;;;;;5037438;28;20049;-78
2023/04/11 05:04:20;;;;;;;93.57;22.30;;;5.10;99.90;;;;;;5036258;28;20045;-73
2023/04/11 05:06:52;;;;;;;106.55;20.90;;;5.10;99.90;;;;;;5052944;28;20075;-74
2023/04/11 05:09:20;;;;;;;121.15;25.20;;;5.20;99.90;;;;;;5026322;28;20358;-80
2023/04/11 05:11:53;;;;;;;77.55;21.90;;;5.30;99.90;;;;;;5045038;28;20111;-81
2023/04/11 05:14:22;;;;;;;95.47;24.08;;;5.30;99.90;;;;;;5031315;28;20418;-76
2023/04/11 05:16:52;;;;;;;99.03;26.15;;;5.40;99.90;;;;;;5017573;28;20053;-75
2023/04/11 05:19:20;;;;;;;97.50;21.17;;;5.50;99.90;;;;;;5015998;28;20132;-81
2023/04/11 05:21:50;;;;;;;97.20;22.65;;;5.60;99.90;;;;;;5028244;28;20049;-79
2023/04/11 05:24:17;;;;;;;97.75;23.27;;;5.70;99.90;;;;;;5026010;28;20522;-79
2023/04/11 05:26:47;;;;;;;97.40;22.83;;;5.80;99.90;;;;;;5000137;28;20136;-78
2023/04/11 05:29:20;;;;;;;81.38;22.58;;;5.90;99.90;;;;;;5020946;28;20045;-79
2023/04/11 05:31:49;;;;;;;96.72;25.30;;;6.00;99.90;;;;;;5007773;28;20068;-78
2023/04/11 05:34:17;;;;;;;102.68;26.33;;;6.10;99.90;;;;;;5014851;28;20127;-78
2023/04/11 05:36:49;;;;;;;106.82;23.20;;;6.30;99.90;;;;;;5008919;28;20068;-79
2023/04/11 05:39:17;;;;;;;115.05;25.05;;;6.50;99.90;;;;;;5025515;28;20513;-80
2023/04/11 05:41:45;;;;;;;114.07;24.83;;;6.70;99.90;;;;;;5024091;28;20046;-78
2023/04/11 05:44:12;;;;;;;118.15;25.23;;;7.00;99.90;;;;;;5023940;28;20049;-79
2023/04/11 05:46:41;;;;;;;117.53;26.60;;;7.60;99.90;;;;;;5026702;28;20140;-79
2023/04/11 05:49:10;;;;;;;106.43;26.48;;;8.20;99.90;;;;;;5023102;28;20046;-78
2023/04/11 05:51:38;;;;;;;126.03;26.50;;;8.90;99.90;;;;;;5009745;28;20057;-79
2023/04/11 05:54:05;;;;;;;109.97;25.73;;;9.60;99.90;;;;;;5028856;28;20195;-79
2023/04/11 05:56:34;;;;;;;124.80;24.77;;;10.20;99.90;;;;;;5028120;28;20041;-80
2023/04/11 05:59:02;;;;;;;116.15;26.98;;;10.70;99.90;;;;;;5012359;28;20042;-77
2023/04/11 06:01:30;;;;;;;102.38;25.42;;;11.20;99.90;;;;;;5030220;28;20073;-77
2023/04/11 06:03:59;;;;;;;111.03;24.95;;;11.70;99.90;;;;;;5027013;28;20057;-77
2023/04/11 06:06:28;;;;;;;119.72;24.58;;;12.20;99.30;;;;;;5022041;28;20045;-77
2023/04/11 06:08:56;;;;;;;118.13;25.23;;;12.70;96.30;;;;;;5024311;28;20050;-78
2023/04/11 06:11:27;;;;;;;117.35;26.05;;;13.10;93.30;;;;;;5006596;28;20394;-77
2023/04/11 06:13:55;;;;;;;131.05;25.90;;;13.60;90.60;;;;;;5025726;28;20076;-79
2023/04/11 06:16:23;;;;;;;116.47;28.52;;;13.80;87.60;;;;;;5030823;28;20061;-76
2023/04/11 06:18:51;;;;;;;109.80;24.50;;;13.90;84.40;;;;;;5019008;28;20401;-79
2023/04/11 06:21:20;;;;;;;112.93;27.08;;;13.80;82.60;;;;;;5023827;28;20068;-78
2023/04/11 06:23:50;;;;;;;110.20;24.98;;;13.80;82.30;;;;;;5031533;28;20060;-78
2023/04/11 06:26:17;;;;;;;101.93;23.90;;;13.90;81.30;;;;;;5030668;28;20049;-80
2023/04/11 06:28:45;;;;;;;105.07;21.35;;;13.90;79.80;;;;;;5030886;28;20107;-78
2023/04/11 06:31:12;;;;;;;88.43;21.95;;;14.00;77.70;;;;;;5031503;28;20188;-81
2023/04/11 06:33:40;;;;;;;102.65;23.92;;;14.10;76.40;;;;;;5028737;28;20119;-82
2023/04/11 06:36:08;;;;;;;77.72;20.48;;;14.20;76.00;;;;;;5035905;28;20052;-81
2023/04/11 06:38:39;;;;;;;82.70;20.25;;;14.40;74.90;;;;;;5029687;28;20183;-83
2023/04/11 06:41:07;;;;;;;91.18;20.10;;;14.90;73.30;;;;;;5031063;28;20474;-85
2023/04/11 06:43:35;;;;;;;91.07;22.10;;;15.30;70.60;;;;;;5025392;28;20052;-81
2023/04/11 06:46:02;;;;;;;90.38;21.13;;;15.70;68.20;;;;;;5004484;28;20258;-82
2023/04/11 06:48:29;;;;;;;82.22;20.05;;;16.20;66.30;;;;;;5021999;28;20072;-83
2023/04/11 06:50:57;;;;;;;82.68;18.95;;;16.60;64.00;;;;;;5034488;28;20076;-83
2023/04/11 06:53:25;;;;;;;81.55;19.65;;;17.20;62.30;;;;;;5025450;28;20501;-76
2023/04/11 06:55:54;;;;;;;93.47;18.77;;;17.60;60.30;;;;;;5030021;28;20041;-77
2023/04/11 06:58:22;;;;;;;76.18;20.00;;;18.00;58.60;;;;;;5004060;28;20065;-75
2023/04/11 07:00:50;;;;;;;88.57;19.77;;;18.20;57.50;;;;;;5025969;28;20053;-77
2023/04/11 07:03:18;;;;;;;73.43;17.65;;;18.30;57.10;;;;;;5020653;28;20048;-77
2023/04/11 07:05:46;;;;;;;65.43;17.85;;;18.60;56.00;;;;;;5019647;28;20075;-77
2023/04/11 07:08:13;;;;;;;69.00;16.65;;;18.60;55.30;;;;;;5003494;28;20464;-77
2023/04/11 07:10:40;;;;;;;81.10;15.35;;;18.60;54.30;;;;;;5032065;28;20058;-77
2023/04/11 07:13:09;;;;;;;61.00;16.50;;;18.60;54.20;;;;;;5037392;28;20049;-81
2023/04/11 07:15:36;;;;;;;61.58;12.88;;;18.60;54.10;;;;;;5034747;28;20049;-81
2023/04/11 07:18:04;;;;;;;42.83;10.90;;;18.60;53.20;;;;;;5035805;28;20118;-82
2023/04/11 07:20:33;;;;;;;44.47;11.43;;;18.60;51.90;;;;;;5010974;28;20046;-83
2023/04/11 07:23:01;;;;;;;51.58;12.45;;;18.70;51.70;;;;;;5012198;28;20049;-82
2023/04/11 07:25:32;;;;;;;35.97;10.40;;;18.80;51.40;;;;;;5020512;28;20045;-83
2023/04/11 07:28:00;;;;;;;32.65;9.57;;;18.90;50.60;;;;;;5039718;28;20414;-83
2023/04/11 07:30:31;;;;;;;53.70;10.55;;;19.30;49.60;;;;;;5019512;28;20145;-81
2023/04/11 07:32:58;;;;;;;41.65;10.77;;;19.70;48.80;;;;;;5047287;28;20099;-82
2023/04/11 07:35:27;;;;;;;31.15;10.68;;;19.90;49.10;;;;;;5038756;28;20104;-82
2023/04/11 07:37:56;;;;;;;42.65;9.63;;;20.30;48.40;;;;;;5029878;28;20045;-83
2023/04/11 07:40:23;;;;;;;33.00;9.35;;;20.50;47.40;;;;;;5034931;28;20057;-82
2023/04/11 07:42:51;;;;;;;42.90;12.38;;;20.40;46.80;;;;;;5042294;28;20046;-81
2023/04/11 07:45:18;;;;;;;46.75;11.70;;;20.50;46.70;;;;;;5014899;28;20150;-82
2023/04/11 07:47:48;;;;;;;36.13;9.82;;;20.80;46.50;;;;;;5045478;28;20099;-83
2023/04/11 07:50:18;;;;;;;30.48;8.75;;;21.10;45.90;;;;;;5022595;28;20076;-84
2023/04/11 07:52:48;;;;;;;23.48;7.55;;;21.40;45.00;;;;;;5009932;28;20515;-83
2023/04/11 07:55:15;;;;;;;27.25;8.57;;;21.70;43.80;;;;;;5022045;28;20048;-78
2023/04/11 07:57:43;;;;;;;35.17;9.18;;;22.10;43.00;;;;;;5035526;28;20069;-77
2023/04/11 08:00:20;;;;;;;28.35;9.45;;;22.40;43.80;;;;;;5033099;28;20049;-76
2023/04/11 08:02:49;;;;;;;34.50;9.77;;;22.60;43.70;;;;;;5047981;28;20049;-76
2023/04/11 08:05:18;;;;;;;44.47;10.23;;;23.00;42.30;;;;;;5037659;28;20429;-76
2023/04/11 08:07:45;;;;;;;29.42;9.55;;;23.30;41.70;;;;;;5024983;28;20049;-77
2023/04/11 08:10:13;;;;;;;40.78;8.70;;;23.80;41.50;;;;;;5030369;28;20061;-76
2023/04/11 08:12:40;;;;;;;29.48;9.82;;;24.20;41.90;;;;;;5024830;28;20064;-76
2023/04/11 08:15:09;;;;;;;28.73;11.63;;;24.40;42.20;;;;;;5027609;28;20079;-78
2023/04/11 08:17:39;;;;;;;27.45;10.75;;;24.60;42.00;;;;;;5029377;28;20048;-77
2023/04/11 08:20:11;;;;;;;39.42;12.32;;;24.70;40.60;;;;;;5024958;28;20502;-77
2023/04/11 08:22:40;;;;;;;25.65;10.05;;;24.70;40.80;;;;;;5033169;28;20045;-81
2023/04/11 08:25:09;;;;;;;33.78;9.82;;;24.80;40.70;;;;;;5026658;28;20052;-83
2023/04/11 08:27:37;;;;;;;30.00;10.52;;;25.00;40.30;;;;;;5036957;28;20064;-80
2023/04/11 08:30:07;;;;;;;26.52;10.07;;;25.00;40.30;;;;;;5038715;28;20139;-83
2023/04/11 08:32:34;;;;;;;28.33;9.90;;;25.30;40.60;;;;;;5026406;28;20458;-84
2023/04/11 08:35:02;;;;;;;29.50;9.43;;;25.60;38.40;;;;;;5035262;28;20152;-82
2023/04/11 08:37:32;;;;;;;25.90;9.60;;;25.80;38.60;;;;;;5033872;28;20053;-81
2023/04/11 08:39:59;;;;;;;19.65;8.75;;;26.00;38.70;;;;;;5036556;28;20140;-84
2023/04/11 08:42:28;;;;;;;26.27;7.95;;;26.20;37.40;;;;;;5017609;28;20079;-83
2023/04/11 08:44:58;;;;;;;22.73;8.65;;;26.50;36.70;;;;;;5032180;28;20045;-86
2023/04/11 08:47:26;;;;;;;17.95;7.07;;;27.00;37.80;;;;;;5032726;28;20081;-83
2023/04/11 08:49:55;;;;;;;22.25;7.72;;;27.00;36.40;;;;;;5048931;28;20049;-83
2023/04/11 08:52:27;;;;;;;20.85;6.35;;;26.70;36.40;;;;;;5025742;28;20057;-83
2023/04/11 08:54:57;;;;;;;18.05;6.03;;;26.60;36.50;;;;;;5039064;28;20583;-83
2023/04/11 08:57:26;;;;;;;18.90;6.72;;;27.00;36.40;;;;;;5023308;28;20042;-85
2023/04/11 08:59:56;;;;;;;19.88;6.72;;;27.10;35.30;;;;;;5050427;28;20087;-85
2023/04/11 09:02:23;;;;;;;14.15;6.07;;;26.80;35.70;;;;;;5026419;28;20156;-77
2023/04/11 09:04:51;;;;;;;21.08;6.80;;;26.90;37.20;;;;;;5023370;28;20111;-82
2023/04/11 09:07:19;;;;;;;22.30;6.20;;;27.20;37.30;;;;;;5033482;28;20048;-83
2023/04/11 09:09:47;;;;;;;11.65;4.90;;;27.80;36.50;;;;;;5021764;28;20046;-82
2023/04/11 09:12:19;;;;;;;17.65;5.50;;;28.10;35.80;;;;;;5020980;28;20076;-82
2023/04/11 09:14:47;;;;;;;13.20;5.03;;;28.00;35.70;;;;;;5031764;28;20058;-82
2023/04/11 09:17:15;;;;;;;17.85;6.05;;;27.90;35.00;;;;;;5030240;28;20045;-81
2023/04/11 09:19:43;;;;;;;19.58;6.30;;;27.70;35.00;;;;;;5031833;28;20049;-80
2023/04/11 09:22:10;;;;;;;15.32;5.90;;;27.70;36.50;;;;;;5024638;28;20153;-81
2023/04/11 09:24:38;;;;;;;19.02;6.68;;;27.90;37.70;;;;;;5028111;28;20045;-81
2023/04/11 09:27:11;;;;;;;14.98;6.75;;;28.20;35.30;;;;;;5030669;28;20045;-81
2023/04/11 09:29:44;;;;;;;17.70;6.50;;;28.10;36.60;;;;;;5031635;28;20049;-82
2023/04/11 09:32:28;;;;;;;18.60;6.88;;;28.20;36.70;;;;;;5029199;28;20532;-79
2023/04/11 09:35:14;;;;;;;24.23;7.47;;;28.30;35.80;;;;;;5025663;28;20160;-80
2023/04/11 09:37:47;;;;;;;16.95;6.75;;;28.40;35.90;;;;;;5027150;28;20077;-80
2023/04/11 09:40:17;;;;;;;25.02;7.30;;;28.20;36.50;;;;;;5029114;28;20529;-79
2023/04/11 09:42:45;;;;;;;18.92;8.55;;;28.30;38.00;;;;;;5011627;28;20132;-78
2023/04/11 09:45:20;;;;;;;15.60;6.55;;;28.30;36.70;;;;;;5022649;28;20096;-80
2023/04/11 09:47:50;;;;;;;16.25;6.50;;;28.10;36.30;;;;;;5031750;28;20045;-80
2023/04/11 09:50:18;;;;;;;18.63;6.47;;;27.70;37.20;;;;;;5031397;28;20049;-80
2023/04/11 09:52:47;;;;;;;19.30;5.97;;;27.10;37.40;;;;;;5028339;28;20501;-79
2023/04/11 09:55:16;;;;;;;14.00;5.20;;;26.70;36.80;;;;;;5031463;28;20056;-79
2023/04/11 09:57:46;;;;;;;9.30;4.95;;;26.50;37.50;;;;;;5041133;28;20489;-79
2023/04/11 10:00:18;;;;;;;17.52;5.32;;;26.50;37.90;;;;;;5030608;28;20092;-81
2023/04/11 10:02:51;;;;;;;14.52;4.88;;;26.80;37.50;;;;;;5038952;28;20108;-80
2023/04/11 10:05:24;;;;;;;9.48;4.25;;;27.10;36.60;;;;;;5033900;28;20060;-81
2023/04/11 10:07:59;;;;;;;11.07;4.53;;;27.60;36.00;;;;;;5028820;28;20073;-82
2023/04/11 10:10:27;;;;;;;12.80;4.50;;;27.90;36.10;;;;;;5022374;28;20049;-79
2023/04/11 10:12:55;;;;;;;9.13;4.95;;;27.80;36.50;;;;;;5032154;28;20049;-79
2023/04/11 10:15:24;;;;;;;11.43;4.55;;;27.80;36.10;;;;;;5032342;28;20111;-80
2023/04/11 10:18:11;;;;;;;12.70;5.90;;;27.80;36.50;;;;;;5032134;28;20047;-79
2023/04/11 10:20:48;;;;;;;9.38;4.75;;;27.90;37.50;;;;;;5026585;28;20037;-79
2023/04/11 10:23:16;;;;;;;9.32;4.82;;;28.10;36.90;;;;;;5014603;28;20045;-79
2023/04/11 10:25:57;;;;;;;10.63;4.70;;;28.30;36.60;;;;;;5024221;28;20140;-80
2023/04/11 10:28:37;;;;;;;7.70;4.43;;;28.80;35.80;;;;;;5025952;28;20049;-78
2023/04/11 10:31:08;;;;;;;8.77;4.55;;;29.00;35.30;;;;;;5033147;28;20516;-79
2023/04/11 10:33:40;;;;;;;10.20;4.90;;;28.20;35.60;;;;;;5032936;28;20061;-79
2023/04/11 10:36:09;;;;;;;;;;;27.70;36.30;;;;;;5033126;28;20058;-80
2023/04/11 10:38:50;;;;;;;9.48;3.80;;;27.40;36.30;;;;;;5028872;28;19971;-78
2023/04/11 10:41:24;;;;;;;7.82;3.80;;;27.50;37.30;;;;;;5032405;28;20049;-78
2023/04/11 10:44:15;;;;;;;9.23;3.53;;;27.80;37.10;;;;;;5024568;28;20049;-79
2023/04/11 10:46:50;;;;;;;15.75;4.25;;;27.80;36.10;;;;;;5033409;28;20057;-82
2023/04/11 10:49:37;;;;;;;8.25;3.22;;;28.00;36.10;;;;;;5032851;28;20049;-82
2023/04/11 10:52:23;;;;;;;6.75;3.25;;;27.60;36.20;;;;;;5032012;28;20489;-80
2023/04/11 10:54:53;;;;;;;16.77;5.93;;;27.40;36.10;;;;;;5014897;28;20547;-80
2023/04/11 10:57:21;;;;;;;10.63;3.85;;;26.90;36.90;;;;;;5028925;28;20045;-80
2023/04/11 11:00:12;;;;;;;10.82;3.70;;;26.20;36.80;;;;;;5031008;28;20053;-80
2023/04/11 11:02:41;;;;;;;5.80;3.95;;;25.80;37.50;;;;;;5031661;28;20077;-81
2023/04/11 11:05:24;;;;;;;10.18;4.05;;;25.80;37.70;;;;;;5032444;28;20054;-81
2023/04/11 11:07:53;;;;;;;5.60;3.22;;;26.30;37.70;;;;;;5031927;28;20053;-80
2023/04/11 11:10:42;;;;;;;7.05;3.90;;;26.50;37.30;;;;;;5031514;28;20498;-81
2023/04/11 11:13:10;;;;;;;7.00;3.60;;;26.70;36.80;;;;;;5031378;28;20063;-81
2023/04/11 11:15:38;;;;;;;7.70;3.45;;;27.00;36.70;;;;;;5031043;28;20425;-81
2023/04/11 11:18:09;;;;;;;8.98;3.13;;;27.40;37.50;;;;;;5014229;28;20052;-81
2023/04/11 11:20:39;;;;;;;8.07;3.70;;;27.80;36.80;;;;;;5030566;28;20045;-81
2023/04/11 11:23:08;;;;;;;15.05;4.03;;;28.20;35.90;;;;;;5032523;28;20049;-81
2023/04/11 11:25:36;;;;;;;8.35;3.58;;;28.40;35.30;;;;;;5047532;28;20061;-81
2023/04/11 11:28:06;;;;;;;9.00;4.07;;;28.80;34.10;;;;;;5013542;28;20045;-81
2023/04/11 11:30:35;;;;;;;8.48;4.25;;;28.50;34.30;;;;;;5030859;28;20054;-81
2023/04/11 11:33:17;;;;;;;12.27;4.35;;;28.10;35.10;;;;;;5014013;28;20053;-80
2023/04/11 11:35:52;;;;;;;13.98;5.13;;;28.20;35.40;;;;;;5031558;28;20061;-82
2023/04/11 11:38:21;;;;;;;8.95;4.47;;;28.30;35.40;;;;;;5030751;28;20061;-82
2023/04/11 11:40:49;;;;;;;9.68;5.20;;;28.30;35.30;;;;;;5031663;28;20049;-82
2023/04/11 11:43:16;;;;;;;10.52;4.68;;;28.50;36.10;;;;;;5030803;28;20053;-82
2023/04/11 11:45:45;;;;;;;11.73;5.07;;;28.70;37.30;;;;;;5014347;28;20593;-84
2023/04/11 11:48:22;;;;;;;15.25;5.15;;;28.70;35.90;;;;;;5029423;28;20047;-82
2023/04/11 11:50:56;;;;;;;15.00;5.30;;;28.60;35.00;;;;;;5032015;28;20491;-82
2023/04/11 11:53:25;;;;;;;9.93;5.00;;;28.70;35.10;;;;;;5014133;28;20053;-82
2023/04/11 11:55:53;;;;;;;15.90;5.13;;;28.60;34.70;;;;;;5030835;28;20131;-82
2023/04/11 11:58:22;;;;;;;16.00;5.25;;;28.70;34.90;;;;;;5031314;28;20144;-81
2023/04/11 12:00:51;;;;;;;15.27;5.53;;;28.80;33.50;;;;;;5019256;28;20136;-77
2023/04/11 12:03:23;;;;;;;15.75;5.22;;;29.10;33.30;;;;;;5023045;28;20041;-80
2023/04/11 12:05:52;;;;;;;17.10;5.32;;;29.70;34.10;;;;;;5025065;28;20046;-81
2023/04/11 12:08:21;;;;;;;13.95;5.25;;;30.20;33.20;;;;;;5018648;28;20131;-78
2023/04/11 12:10:50;;;;;;;16.98;6.30;;;30.70;32.30;;;;;;5024497;28;20041;-79
2023/04/11 12:13:21;;;;;;;17.45;6.10;;;31.20;32.60;;;;;;5048676;28;20077;-78
2023/04/11 12:15:55;;;;;;;16.67;6.05;;;31.30;32.20;;;;;;5027191;28;20049;-78
2023/04/11 12:18:25;;;;;;;9.18;4.97;;;31.40;33.40;;;;;;5023656;28;20052;-79
2023/04/11 12:20:53;;;;;;;21.73;6.70;;;31.20;33.20;;;;;;5039930;28;20049;-78
2023/04/11 12:23:21;;;;;;;18.80;5.43;;;31.00;32.30;;;;;;5024433;28;20046;-79
2023/04/11 12:25:48;;;;;;;13.57;5.28;;;30.80;31.80;;;;;;5024665;28;20054;-77
2023/04/11 12:28:16;;;;;;;8.48;4.80;;;30.70;32.70;;;;;;5024439;28;20081;-77
2023/04/11 12:30:44;;;;;;;12.63;5.20;;;30.60;31.90;;;;;;5024791;28;20136;-81
2023/04/11 12:33:15;;;;;;;17.23;5.80;;;30.60;32.80;;;;;;5011907;28;20053;-80
2023/04/11 12:35:44;;;;;;;13.55;5.55;;;30.60;32.60;;;;;;5029947;28;20053;-78
2023/04/11 12:38:11;;;;;;;14.00;5.70;;;30.50;32.80;;;;;;5030975;28;20533;-80
2023/04/11 12:40:38;;;;;;;7.97;5.20;;;30.40;32.90;;;;;;5050496;28;20045;-77
2023/04/11 12:43:06;;;;;;;11.48;5.38;;;30.30;33.10;;;;;;5024699;28;20109;-80
2023/04/11 12:45:33;;;;;;;16.88;5.97;;;30.30;34.40;;;;;;5030964;28;20561;-79
2023/04/11 12:48:01;;;;;;;14.25;6.05;;;30.80;34.20;;;;;;5032074;28;20053;-77
2023/04/11 12:50:28;;;;;;;13.23;5.88;;;31.10;33.30;;;;;;5014188;28;20046;-80